createdAt,value
2022-12-11T00:00:40.801Z,94546.59
2022-12-11T00:03:12.738Z,94545.81
2022-12-11T00:05:42.411Z,94543.41
2022-12-11T00:08:08.974Z,94548.50
2022-12-11T00:10:38.022Z,94545.03
2022-12-11T00:13:05.240Z,94546.38
2022-12-11T00:15:32.124Z,94550.09
2022-12-11T00:17:58.759Z,94559.72
2022-12-11T00:20:25.409Z,94553.03
2022-12-11T00:22:51.911Z,94558.13
2022-12-11T00:25:18.573Z,94562.41
2022-12-11T00:27:46.252Z,94558.13
2022-12-11T00:30:13.813Z,94558.13
2022-12-11T00:32:40.358Z,94553.59
2022-12-11T00:35:07.262Z,94555.44
2022-12-11T00:37:33.985Z,94552.78
2022-12-11T00:40:00.572Z,94558.66
2022-12-11T00:42:27.084Z,94560.25
2022-12-11T00:44:53.609Z,94550.66
2022-12-11T00:47:20.241Z,94542.91
2022-12-11T00:49:50.010Z,94551.97
2022-12-11T00:52:17.244Z,94550.38
2022-12-11T00:54:43.745Z,94557.88
2022-12-11T00:57:10.320Z,94550.91
2022-12-11T00:59:36.888Z,94560.03
2022-12-11T01:02:03.458Z,94562.19
2022-12-11T01:04:30.007Z,94562.47
2022-12-11T01:06:56.521Z,94563.00
2022-12-11T01:09:23.196Z,94570.19
2022-12-11T01:11:49.973Z,94575.81
2022-12-11T01:14:16.577Z,94567.28
2022-12-11T01:16:43.152Z,94580.13
2022-12-11T01:19:09.729Z,94581.19
2022-12-11T01:21:36.350Z,94576.41
2022-12-11T01:24:02.884Z,94576.66
2022-12-11T01:26:29.509Z,94571.59
2022-12-11T01:28:56.038Z,94571.09
2022-12-11T01:31:23.086Z,94572.16
2022-12-11T01:33:49.764Z,94575.91
2022-12-11T01:36:21.734Z,94579.63
2022-12-11T01:38:49.271Z,94586.59
2022-12-11T01:41:17.217Z,94588.44
2022-12-11T01:44:02.721Z,94596.44
2022-12-11T01:46:30.512Z,94586.03
2022-12-11T01:48:58.339Z,94594.84
2022-12-11T01:51:24.932Z,94588.16
2022-12-11T01:54:00.623Z,94596.19
2022-12-11T01:56:31.062Z,94596.97
2022-12-11T01:59:01.642Z,94603.63
2022-12-11T02:01:35.026Z,94593.50
2022-12-11T02:04:02.333Z,94597.53
2022-12-11T02:06:38.084Z,94607.94
2022-12-11T02:09:12.001Z,94607.13
2022-12-11T02:11:47.614Z,94606.63
2022-12-11T02:14:37.149Z,94602.09
2022-12-11T02:17:36.004Z,94595.41
2022-12-11T02:20:17.881Z,94592.50
2022-12-11T02:23:06.734Z,94596.25
2022-12-11T02:25:54.359Z,94587.69
2022-12-11T02:28:30.106Z,94583.97
2022-12-11T02:31:18.956Z,94570.09
2022-12-11T02:33:54.976Z,94573.81
2022-12-11T02:36:24.919Z,94568.50
2022-12-11T02:38:54.558Z,94564.75
2022-12-11T02:41:23.445Z,94571.69
2022-12-11T02:43:52.521Z,94566.34
2022-12-11T02:46:21.628Z,94570.88
2022-12-11T02:48:51.102Z,94570.38
2022-12-11T02:51:23.742Z,94574.63
2022-12-11T02:53:54.756Z,94581.03
2022-12-11T02:56:26.817Z,94577.56
2022-12-11T02:59:01.729Z,94580.22
2022-12-11T03:01:29.273Z,94586.13
2022-12-11T03:03:57.605Z,94582.63
2022-12-11T03:06:31.083Z,94580.78
2022-12-11T03:08:57.721Z,94587.19
2022-12-11T03:11:30.483Z,94593.56
2022-12-11T03:14:01.142Z,94588.50
2022-12-11T03:16:38.657Z,94598.41
2022-12-11T03:19:21.482Z,94597.59
2022-12-11T03:22:03.276Z,94601.59
2022-12-11T03:24:38.717Z,94587.72
2022-12-11T03:27:23.123Z,94604.00
2022-12-11T03:30:15.697Z,94598.16
2022-12-11T03:32:50.456Z,94587.75
2022-12-11T03:35:52.156Z,94606.44
2022-12-11T03:38:36.365Z,94598.41
2022-12-11T03:41:05.431Z,94598.16
2022-12-11T03:43:33.145Z,94600.53
2022-12-11T03:46:01.495Z,94608.00
2022-12-11T03:48:32.741Z,94605.34
2022-12-11T03:51:02.137Z,94598.41
2022-12-11T03:53:28.826Z,94600.00
2022-12-11T03:55:59.108Z,94602.97
2022-12-11T03:58:25.719Z,94592.81
2022-12-11T04:00:52.404Z,94605.91
2022-12-11T04:03:18.940Z,94598.97
2022-12-11T04:05:48.445Z,94606.44
2022-12-11T04:08:16.018Z,94607.50
2022-12-11T04:10:43.133Z,94598.72
2022-12-11T04:13:10.465Z,94603.22
2022-12-11T04:15:37.942Z,94598.97
2022-12-11T04:18:05.781Z,94595.47
2022-12-11T04:20:32.308Z,94593.91
2022-12-11T04:22:58.966Z,94589.63
2022-12-11T04:25:25.530Z,94598.44
2022-12-11T04:27:52.092Z,94597.63
2022-12-11T04:30:22.497Z,94603.75
2022-12-11T04:32:50.027Z,94607.53
2022-12-11T04:35:16.990Z,94602.19
2022-12-11T04:37:43.936Z,94599.78
2022-12-11T04:40:14.174Z,94603.25
2022-12-11T04:42:41.331Z,94600.31
2022-12-11T04:45:09.342Z,94607.78
2022-12-11T04:47:37.932Z,94600.56
2022-12-11T04:50:06.520Z,94598.19
2022-12-11T04:52:33.633Z,94592.03
2022-12-11T04:55:00.251Z,94590.44
2022-12-11T04:57:26.793Z,94593.38
2022-12-11T04:59:53.298Z,94605.66
2022-12-11T05:02:19.940Z,94598.72
2022-12-11T05:04:46.665Z,94602.47
2022-12-11T05:07:13.411Z,94601.66
2022-12-11T05:09:40.069Z,94599.25
2022-12-11T05:12:06.697Z,94600.06
2022-12-11T05:14:33.296Z,94598.47
2022-12-11T05:17:00.011Z,94603.78
2022-12-11T05:19:27.043Z,94595.28
2022-12-11T05:21:53.946Z,94595.28
2022-12-11T05:24:20.695Z,94590.19
2022-12-11T05:26:47.193Z,94602.72
2022-12-11T05:29:13.737Z,94601.41
2022-12-11T05:31:40.635Z,94596.06
2022-12-11T05:34:07.299Z,94597.94
2022-12-11T05:36:34.387Z,94585.66
2022-12-11T05:39:01.944Z,94587.25
2022-12-11T05:41:30.535Z,94589.13
2022-12-11T05:43:57.158Z,94585.66
2022-12-11T05:46:26.364Z,94598.19
2022-12-11T05:48:55.975Z,94593.41
2022-12-11T05:51:23.493Z,94596.34
2022-12-11T05:53:51.900Z,94591.00
2022-12-11T05:56:30.124Z,94590.19
2022-12-11T05:58:57.080Z,94591.00
2022-12-11T06:01:30.413Z,94588.06
2022-12-11T06:03:57.931Z,94590.75
2022-12-11T06:06:25.470Z,94585.13
2022-12-11T06:08:53.748Z,94587.81
2022-12-11T06:11:24.164Z,94584.03
2022-12-11T06:13:52.091Z,94584.31
2022-12-11T06:16:19.432Z,94582.72
2022-12-11T06:18:46.044Z,94569.66
2022-12-11T06:21:13.709Z,94574.19
2022-12-11T06:23:41.101Z,94568.59
2022-12-11T06:26:08.190Z,94577.66
2022-12-11T06:28:34.742Z,94577.94
2022-12-11T06:31:02.068Z,94578.22
2022-12-11T06:33:28.841Z,94583.56
2022-12-11T06:35:55.375Z,94581.16
2022-12-11T06:38:21.834Z,94576.88
2022-12-11T06:40:58.710Z,94584.09
2022-12-11T06:43:25.772Z,94585.16
2022-12-11T06:45:52.717Z,94578.19
2022-12-11T06:48:20.400Z,94577.16
2022-12-11T06:50:47.073Z,94582.47
2022-12-11T06:53:14.736Z,94575.53
2022-12-11T06:55:42.041Z,94580.34
2022-12-11T06:58:09.725Z,94574.22
2022-12-11T07:00:36.751Z,94579.81
2022-12-11T07:03:04.651Z,94580.88
2022-12-11T07:05:32.509Z,94583.56
2022-12-11T07:07:59.342Z,94577.69
2022-12-11T07:10:26.040Z,94586.22
2022-12-11T07:12:53.059Z,94585.44
2022-12-11T07:15:19.565Z,94591.81
2022-12-11T07:17:46.125Z,94603.28
2022-12-11T07:20:12.872Z,94599.56
2022-12-11T07:22:46.027Z,94603.28
2022-12-11T07:25:13.482Z,94603.28
2022-12-11T07:27:40.104Z,94600.09
2022-12-11T07:30:07.397Z,94608.34
2022-12-11T07:32:33.969Z,94605.97
2022-12-11T07:35:00.554Z,94608.09
2022-12-11T07:37:27.171Z,94612.66
2022-12-11T07:39:53.677Z,94610.78
2022-12-11T07:42:20.236Z,94621.16
2022-12-11T07:44:46.780Z,94611.28
2022-12-11T07:47:13.321Z,94612.91
2022-12-11T07:49:39.837Z,94612.38
2022-12-11T07:52:06.343Z,94612.63
2022-12-11T07:54:32.961Z,94613.97
2022-12-11T07:56:59.458Z,94616.09
2022-12-11T07:59:25.934Z,94610.22
2022-12-11T08:01:52.407Z,94612.34
2022-12-11T08:04:18.979Z,94613.69
2022-12-11T08:06:45.454Z,94616.59
2022-12-11T08:09:19.094Z,94608.06
2022-12-11T08:11:49.930Z,94618.19
2022-12-11T08:14:16.615Z,94607.00
2022-12-11T08:16:43.276Z,94608.59
2022-12-11T08:19:13.526Z,94615.25
2022-12-11T08:21:43.148Z,94612.84
2022-12-11T08:24:10.298Z,94612.06
2022-12-11T08:26:36.943Z,94622.47
2022-12-11T08:29:03.964Z,94621.91
2022-12-11T08:31:32.766Z,94612.28
2022-12-11T08:33:59.444Z,94612.00
2022-12-11T08:36:26.159Z,94612.25
2022-12-11T08:38:55.123Z,94616.53
2022-12-11T08:41:24.565Z,94613.59
2022-12-11T08:43:51.526Z,94622.13
2022-12-11T08:46:18.088Z,94625.34
2022-12-11T08:48:44.562Z,94627.75
2022-12-11T08:51:14.040Z,94625.59
2022-12-11T08:53:40.644Z,94626.13
2022-12-11T08:56:10.472Z,94626.63
2022-12-11T08:58:37.700Z,94625.03
2022-12-11T09:01:12.066Z,94623.44
2022-12-11T09:03:40.239Z,94629.28
2022-12-11T09:06:08.409Z,94627.41
2022-12-11T09:08:34.877Z,94620.16
2022-12-11T09:11:06.550Z,94626.56
2022-12-11T09:13:36.718Z,94620.91
2022-12-11T09:16:13.019Z,94618.19
2022-12-11T09:18:40.235Z,94617.66
2022-12-11T09:21:09.824Z,94616.59
2022-12-11T09:23:36.781Z,94615.78
2022-12-11T09:26:08.373Z,94606.66
2022-12-11T09:28:34.966Z,94618.69
2022-12-11T09:31:01.593Z,94611.44
2022-12-11T09:33:28.118Z,94613.56
2022-12-11T09:36:02.710Z,94615.72
2022-12-11T09:38:29.791Z,94613.06
2022-12-11T09:40:56.785Z,94614.66
2022-12-11T09:43:42.121Z,94616.78
2022-12-11T09:46:15.271Z,94614.94
2022-12-11T09:48:46.096Z,94611.19
2022-12-11T09:51:28.525Z,94612.28
2022-12-11T09:53:59.527Z,94613.84
2022-12-11T09:56:39.731Z,94607.19
2022-12-11T09:59:23.749Z,94600.25
2022-12-11T10:02:02.259Z,94599.72
2022-12-11T10:04:56.313Z,94600.28
2022-12-11T10:07:37.924Z,94595.47
2022-12-11T10:10:19.343Z,94587.19
2022-12-11T10:13:12.990Z,94586.38
2022-12-11T10:16:04.728Z,94583.94
2022-12-11T10:18:33.748Z,94585.00
2022-12-11T10:21:02.393Z,94587.63
2022-12-11T10:23:38.188Z,94581.72
2022-12-11T10:26:11.060Z,94579.84
2022-12-11T10:28:37.897Z,94571.81
2022-12-11T10:31:14.400Z,94578.78
2022-12-11T10:33:56.351Z,94570.22
2022-12-11T10:36:35.581Z,94570.50
2022-12-11T10:39:10.929Z,94574.50
2022-12-11T10:41:39.467Z,94567.81
2022-12-11T10:44:16.391Z,94559.81
2022-12-11T10:46:43.154Z,94562.47
2022-12-11T10:49:23.554Z,94558.28
2022-12-11T10:51:54.967Z,94556.09
2022-12-11T10:54:24.230Z,94548.38
2022-12-11T10:56:50.981Z,94553.16
2022-12-11T10:59:46.905Z,94548.13
2022-12-11T11:02:23.601Z,94555.09
2022-12-11T11:04:51.331Z,94545.75
2022-12-11T11:07:24.322Z,94548.97
2022-12-11T11:10:04.223Z,94543.38
2022-12-11T11:12:36.543Z,94529.78
2022-12-11T11:15:11.437Z,94531.13
2022-12-11T11:17:54.865Z,94534.34
2022-12-11T11:20:28.492Z,94530.59
2022-12-11T11:22:57.557Z,94524.19
2022-12-11T11:25:30.821Z,94517.53
2022-12-11T11:28:18.939Z,94514.56
2022-12-11T11:30:58.533Z,94515.63
2022-12-11T11:33:25.696Z,94515.63
2022-12-11T11:35:54.470Z,94515.88
2022-12-11T11:39:02.555Z,94507.84
2022-12-11T11:42:07.689Z,94507.81
2022-12-11T11:44:42.650Z,94501.91
2022-12-11T11:47:17.198Z,94494.97
2022-12-11T11:49:59.958Z,94506.19
2022-12-11T11:52:36.334Z,94491.78
2022-12-11T11:55:32.523Z,94497.94
2022-12-11T11:58:22.857Z,94492.66
2022-12-11T12:00:53.185Z,94492.66
2022-12-11T12:03:23.032Z,94490.25
2022-12-11T12:06:14.917Z,94496.38
2022-12-11T12:08:51.752Z,94494.28
2022-12-11T12:11:39.932Z,94492.97
2022-12-11T12:17:38.503Z,94494.38
2022-12-11T12:20:41.512Z,94488.78
2022-12-11T12:23:29.668Z,94481.63
2022-12-11T12:26:15.002Z,94492.03
2022-12-11T12:29:10.159Z,94491.00
2022-12-11T12:31:43.810Z,94496.06
2022-12-11T12:34:16.713Z,94494.22
2022-12-11T12:37:09.688Z,94497.44
2022-12-11T12:40:00.653Z,94486.75
2022-12-11T12:43:03.799Z,94496.63
2022-12-11T12:45:50.144Z,94496.63
2022-12-11T12:48:17.058Z,94497.94
2022-12-11T12:50:48.491Z,94497.41
2022-12-11T12:53:25.208Z,94487.50
2022-12-11T12:55:52.941Z,94486.72
2022-12-11T12:58:26.372Z,94494.47
2022-12-11T13:00:53.154Z,94483.78
2022-12-11T13:03:25.079Z,94483.50
2022-12-11T13:05:58.415Z,94476.56
2022-12-11T13:08:34.626Z,94477.38
2022-12-11T13:11:08.998Z,94488.84
2022-12-11T13:13:39.464Z,94492.03
2022-12-11T13:16:16.360Z,94483.47
2022-12-11T13:18:48.808Z,94484.28
2022-12-11T13:21:36.714Z,94483.97
2022-12-11T13:24:21.427Z,94487.41
2022-12-11T13:26:49.690Z,94488.97
2022-12-11T13:29:29.476Z,94487.06
2022-12-11T13:31:59.390Z,94487.31
2022-12-11T13:34:31.764Z,94472.06
2022-12-11T13:36:58.698Z,94476.06
2022-12-11T13:39:27.420Z,94480.06
2022-12-11T13:41:57.972Z,94477.41
2022-12-11T13:44:28.245Z,94483.03
2022-12-11T13:46:57.959Z,94476.84
2022-12-11T13:49:28.799Z,94479.53
2022-12-11T13:51:58.869Z,94485.41
2022-12-11T13:54:27.649Z,94483.81
2022-12-11T13:56:55.739Z,94483.03
2022-12-11T13:59:27.276Z,94485.47
2022-12-11T14:01:58.132Z,94487.59
2022-12-11T14:04:25.612Z,94490.03
2022-12-11T14:06:52.216Z,94489.78
2022-12-11T14:09:23.232Z,94492.19
2022-12-11T14:11:56.444Z,94488.50
2022-12-11T14:14:41.947Z,94485.03
2022-12-11T14:17:15.459Z,94485.88
2022-12-11T14:19:47.665Z,94485.09
2022-12-11T14:22:20.789Z,94485.13
2022-12-11T14:24:52.241Z,94495.81
2022-12-11T14:27:20.216Z,94498.53
2022-12-11T14:29:47.021Z,94493.78
2022-12-11T14:32:22.088Z,94493.25
2022-12-11T14:34:50.347Z,94500.22
2022-12-11T14:37:20.118Z,94499.16
2022-12-11T14:39:58.674Z,94495.19
2022-12-11T14:42:29.849Z,94500.53
2022-12-11T14:45:02.295Z,94496.81
2022-12-11T14:47:37.015Z,94496.03
2022-12-11T14:50:10.281Z,94497.38
2022-12-11T14:52:41.841Z,94494.97
2022-12-11T14:55:28.463Z,94502.44
2022-12-11T14:57:59.094Z,94500.84
2022-12-11T15:00:32.988Z,94501.66
2022-12-11T15:03:20.337Z,94493.13
2022-12-11T15:05:54.917Z,94498.44
2022-12-11T15:08:27.489Z,94495.00
2022-12-11T15:11:08.692Z,94503.00
2022-12-11T15:13:38.829Z,94501.13
2022-12-11T15:16:07.514Z,94501.13
2022-12-11T15:18:40.481Z,94505.66
2022-12-11T15:21:10.997Z,94507.53
2022-12-11T15:23:52.759Z,94505.13
2022-12-11T15:26:40.074Z,94505.66
2022-12-11T15:29:25.079Z,94503.00
2022-12-11T15:32:09.592Z,94504.34
2022-12-11T15:34:50.274Z,94500.38
2022-12-11T15:37:25.074Z,94509.41
2022-12-11T15:39:53.525Z,94504.09
2022-12-11T15:42:37.354Z,94506.75
2022-12-11T15:45:07.979Z,94505.72
2022-12-11T15:47:34.616Z,94510.78
2022-12-11T15:50:25.553Z,94515.84
2022-12-11T15:52:54.309Z,94517.19
2022-12-11T15:55:22.430Z,94521.72
2022-12-11T15:57:59.763Z,94516.91
2022-12-11T16:00:26.358Z,94515.34
2022-12-11T16:02:52.920Z,94521.44
2022-12-11T16:05:20.498Z,94514.50
2022-12-11T16:07:48.019Z,94524.38
2022-12-11T16:10:18.058Z,94530.50
2022-12-11T16:12:45.328Z,94531.31
2022-12-11T16:15:21.436Z,94529.72
2022-12-11T16:17:49.843Z,94528.13
2022-12-11T16:20:17.421Z,94535.84
2022-12-11T16:22:43.957Z,94524.38
2022-12-11T16:25:11.202Z,94533.16
2022-12-11T16:27:37.857Z,94529.97
2022-12-11T16:30:04.845Z,94523.06
2022-12-11T16:32:32.807Z,94537.44
2022-12-11T16:34:59.467Z,94532.66
2022-12-11T16:37:26.181Z,94533.19
2022-12-11T16:39:52.798Z,94532.66
2022-12-11T16:42:19.421Z,94533.97
2022-12-11T16:44:46.921Z,94543.03
2022-12-11T16:47:13.548Z,94539.84
2022-12-11T16:49:40.287Z,94542.78
2022-12-11T16:52:06.795Z,94542.78
2022-12-11T16:54:33.469Z,94541.47
2022-12-11T16:57:00.246Z,94547.84
2022-12-11T16:59:27.222Z,94547.06
2022-12-11T17:01:55.574Z,94539.31
2022-12-11T17:04:22.095Z,94547.59
2022-12-11T17:06:48.696Z,94548.38
2022-12-11T17:09:15.304Z,94547.59
2022-12-11T17:11:41.809Z,94547.84
2022-12-11T17:14:09.895Z,94547.28
2022-12-11T17:16:36.394Z,94553.44
2022-12-11T17:19:02.952Z,94553.72
2022-12-11T17:21:29.445Z,94546.50
2022-12-11T17:23:56.037Z,94554.75
2022-12-11T17:26:22.591Z,94548.91
2022-12-11T17:28:49.099Z,94552.09
2022-12-11T17:31:18.619Z,94552.63
2022-12-11T17:33:46.721Z,94553.72
2022-12-11T17:36:18.006Z,94555.81
2022-12-11T17:38:44.967Z,94551.56
2022-12-11T17:41:18.543Z,94555.03
2022-12-11T17:43:51.545Z,94550.47
2022-12-11T17:46:19.913Z,94553.16
2022-12-11T17:48:47.274Z,94547.56
2022-12-11T17:51:15.231Z,94546.75
2022-12-11T17:53:41.707Z,94554.72
2022-12-11T17:56:08.733Z,94554.19
2022-12-11T17:58:35.415Z,94552.63
2022-12-11T18:01:07.430Z,94548.59
2022-12-11T18:03:34.282Z,94557.69
2022-12-11T18:06:05.303Z,94550.75
2022-12-11T18:08:31.786Z,94551.03
2022-12-11T18:11:08.607Z,94554.75
2022-12-11T18:13:35.262Z,94556.09
2022-12-11T18:16:07.945Z,94556.91
2022-12-11T18:18:34.905Z,94555.81
2022-12-11T18:21:01.678Z,94560.09
2022-12-11T18:23:28.269Z,94562.50
2022-12-11T18:25:55.288Z,94559.03
2022-12-11T18:28:21.777Z,94565.16
2022-12-11T18:30:48.459Z,94560.63
2022-12-11T18:33:15.617Z,94557.94
2022-12-11T18:35:42.466Z,94564.09
2022-12-11T18:38:09.257Z,94565.94
2022-12-11T18:40:35.789Z,94565.94
2022-12-11T18:43:03.075Z,94562.50
2022-12-11T18:45:29.945Z,94565.94
2022-12-11T18:47:56.386Z,94570.22
2022-12-11T18:50:23.083Z,94568.06
2022-12-11T18:52:53.373Z,94561.16
2022-12-11T18:55:19.896Z,94565.16
2022-12-11T18:57:46.414Z,94573.69
2022-12-11T19:00:13.630Z,94577.41
2022-12-11T19:02:40.125Z,94573.16
2022-12-11T19:05:06.807Z,94572.88
2022-12-11T19:07:33.370Z,94574.75
2022-12-11T19:09:59.883Z,94572.09
2022-12-11T19:12:26.397Z,94573.69
2022-12-11T19:14:52.998Z,94579.03
2022-12-11T19:17:19.533Z,94569.94
2022-12-11T19:19:46.164Z,94574.22
2022-12-11T19:22:13.323Z,94573.19
2022-12-11T19:24:39.941Z,94580.09
2022-12-11T19:27:13.038Z,94578.75
2022-12-11T19:29:40.197Z,94584.09
2022-12-11T19:32:06.712Z,94588.91
2022-12-11T19:34:33.267Z,94580.91
2022-12-11T19:36:59.866Z,94586.50
2022-12-11T19:39:26.465Z,94591.81
2022-12-11T19:41:52.970Z,94587.03
2022-12-11T19:44:19.493Z,94587.03
2022-12-11T19:46:46.079Z,94581.69
2022-12-11T19:49:12.918Z,94585.69
2022-12-11T19:51:42.147Z,94584.09
2022-12-11T19:54:12.279Z,94585.69
2022-12-11T19:56:38.794Z,94575.81
2022-12-11T19:59:07.858Z,94584.66
2022-12-11T20:01:36.762Z,94585.16
2022-12-11T20:04:09.292Z,94600.09
2022-12-11T20:06:37.666Z,94598.22
2022-12-11T20:09:05.861Z,94594.47
2022-12-11T20:11:33.249Z,94599.03
2022-12-11T20:14:00.079Z,94592.13
2022-12-11T20:16:46.291Z,94595.84
2022-12-11T20:19:13.653Z,94585.97
2022-12-11T20:21:40.331Z,94589.44
2022-12-11T20:24:07.078Z,94592.13
2022-12-11T20:26:33.649Z,94588.38
2022-12-11T20:29:00.115Z,94601.44
2022-12-11T20:31:26.693Z,94585.97
2022-12-11T20:33:56.434Z,94587.81
2022-12-11T20:36:24.726Z,94592.09
2022-12-11T20:38:52.084Z,94584.09
2022-12-11T20:41:22.062Z,94583.81
2022-12-11T20:43:48.805Z,94579.56
2022-12-11T20:46:17.127Z,94577.69
2022-12-11T20:48:45.181Z,94589.94
2022-12-11T20:51:12.561Z,94583.56
2022-12-11T20:53:40.223Z,94584.09
2022-12-11T20:56:15.199Z,94589.94
2022-12-11T20:58:42.233Z,94584.63
2022-12-11T21:01:15.132Z,94585.16
2022-12-11T21:03:42.332Z,94582.75
2022-12-11T21:06:17.981Z,94584.06
2022-12-11T21:08:44.480Z,94582.50
2022-12-11T21:11:11.101Z,94579.25
2022-12-11T21:13:37.533Z,94579.78
2022-12-11T21:16:05.785Z,94579.53
2022-12-11T21:18:32.362Z,94579.78
2022-12-11T21:20:58.937Z,94581.41
2022-12-11T21:23:26.028Z,94574.47
2022-12-11T21:25:53.036Z,94573.41
2022-12-11T21:28:20.235Z,94573.16
2022-12-11T21:30:47.057Z,94565.41
2022-12-11T21:33:13.662Z,94573.94
2022-12-11T21:35:40.256Z,94571.81
2022-12-11T21:38:06.949Z,94574.47
2022-12-11T21:40:33.913Z,94574.47
2022-12-11T21:43:00.442Z,94578.75
2022-12-11T21:48:14.236Z,94574.19
2022-12-11T21:50:41.712Z,94573.66
2022-12-11T21:53:08.361Z,94582.19
2022-12-11T21:55:34.942Z,94575.50
2022-12-11T21:58:01.479Z,94574.97
2022-12-11T22:00:27.992Z,94580.84
2022-12-11T22:02:54.763Z,94571.22
2022-12-11T22:05:21.575Z,94576.81
2022-12-11T22:07:48.183Z,94567.25
2022-12-11T22:10:14.916Z,94566.44
2022-12-11T22:12:41.454Z,94575.25
2022-12-11T22:15:08.821Z,94571.75
2022-12-11T22:17:35.389Z,94578.94
2022-12-11T22:20:01.923Z,94572.56
2022-12-11T22:22:28.461Z,94578.69
2022-12-11T22:24:55.009Z,94572.31
2022-12-11T22:27:23.874Z,94573.38
2022-12-11T22:29:50.777Z,94576.03
2022-12-11T22:32:17.239Z,94570.69
2022-12-11T22:34:43.686Z,94565.38
2022-12-11T22:37:10.208Z,94571.75
2022-12-11T22:39:36.673Z,94575.50
2022-12-11T22:42:04.217Z,94573.88
2022-12-11T22:44:30.693Z,94568.81
2022-12-11T22:46:57.162Z,94573.34
2022-12-11T22:49:23.674Z,94567.47
2022-12-11T22:51:50.445Z,94572.28
2022-12-11T22:54:17.018Z,94567.72
2022-12-11T22:56:43.649Z,94569.06
2022-12-11T22:59:10.305Z,94572.78
2022-12-11T23:01:36.862Z,94572.00
2022-12-11T23:04:03.451Z,94560.00
2022-12-11T23:06:30.170Z,94571.47
2022-12-11T23:09:00.502Z,94569.34
2022-12-11T23:11:35.779Z,94575.72
2022-12-11T23:14:04.406Z,94577.59
2022-12-11T23:16:31.233Z,94581.81
2022-12-11T23:18:58.317Z,94579.97
2022-12-11T23:21:26.316Z,94581.56
2022-12-11T23:23:52.895Z,94574.34
2022-12-11T23:26:19.588Z,94580.50
2022-12-11T23:28:47.236Z,94575.72
2022-12-11T23:31:14.191Z,94575.47
2022-12-11T23:33:40.839Z,94574.41
2022-12-11T23:36:08.210Z,94579.72
2022-12-11T23:38:34.862Z,94581.06
2022-12-11T23:41:02.588Z,94578.66
2022-12-11T23:43:29.466Z,94573.31
2022-12-11T23:45:56.087Z,94580.78
2022-12-11T23:48:22.726Z,94574.41
2022-12-11T23:50:49.206Z,94575.47
2022-12-11T23:53:15.895Z,94584.53
2022-12-11T23:55:44.461Z,94584.53
2022-12-11T23:58:11.549Z,94583.44
